Time;durP1;ratioP1;P1;durP2;ratioP2;P2;SDS_P1;SDS_P2;PMS_P1;PMS_P2;Temp;Humidity;BMP_temperature;BMP_pressure;BME280_temperature;BME280_humidity;BME280_pressure;Samples;Min_cycle;Max_cycle;Signal;HPM_P1;HPM_P2
2023/08/03 00:01:04;;;;;;;;;;;;;;;;;;5012008;28;19997;-68
2023/08/03 00:03:30;;;;;;;;;;;;;;;;;;5012061;28;19996;-69
2023/08/03 00:05:55;;;;;;;;;;;;;;;;;;5008238;28;19928;-63
2023/08/03 00:08:21;;;;;;;;;;;;;;;;;;5011575;28;20381;-61
2023/08/03 00:10:47;;;;;;;;;;;;;;;;;;5009346;28;19956;-62
2023/08/03 00:13:13;;;;;;;;;;;;;;;;;;4994592;28;20004;-61
2023/08/03 00:15:39;;;;;;;;;;;;;;;;;;5011947;28;19910;-60
2023/08/03 00:18:05;;;;;;;;;;;;;;;;;;5011220;28;20392;-59
2023/08/03 00:20:31;;;;;;;;;;;;;;;;;;5009172;28;19953;-59
2023/08/03 00:22:57;;;;;;;;;;;;;;;;;;5009010;28;20284;-64
2023/08/03 00:25:24;;;;;;;;;;;;;;;;;;5009178;28;19952;-60
2023/08/03 00:27:50;;;;;;;;;;;;;;;;;;5011155;28;20372;-61
2023/08/03 00:30:16;;;;;;;;;;;;;;;;;;5010234;28;19963;-60
2023/08/03 00:32:42;;;;;;;;;;;;;;;;;;4991500;28;19957;-60
2023/08/03 00:35:08;;;;;;;;;;;;;;;;;;5012353;28;20280;-61
2023/08/03 00:37:34;;;;;;;;;;;;;;;;;;5015982;28;19924;-60
2023/08/03 00:40:00;;;;;;;;;;;;;;;;;;5015375;28;19964;-60
2023/08/03 00:42:26;;;;;;;;;;;;;;;;;;5015816;28;19909;-60
2023/08/03 00:44:51;;;;;;;;;;;;;;;;;;5014036;28;19917;-59
2023/08/03 00:47:17;;;;;;;;;;;;;;;;;;5013318;28;19913;-60
2023/08/03 00:49:43;;;;;;;;;;;;;;;;;;5014824;28;20368;-63
2023/08/03 00:52:09;;;;;;;;;;;;;;;;;;5015413;28;19917;-60
2023/08/03 00:54:35;;;;;;;;;;;;;;;;;;5015406;28;19988;-59
2023/08/03 00:57:01;;;;;;;;;;;;;;;;;;5015571;28;19921;-59
2023/08/03 00:59:27;;;;;;;;;;;;;;;;;;5014253;28;19960;-60
2023/08/03 01:01:53;;;;;;;;;;;;;;;;;;5013035;28;20002;-65
2023/08/03 01:04:19;;;;;;;;;;;;;;;;;;5013979;28;20038;-67
2023/08/03 01:06:44;;;;;;;;;;;;;;;;;;5013509;28;20408;-66
2023/08/03 01:09:10;;;;;;;;;;;;;;;;;;5015355;28;19913;-68
2023/08/03 01:11:36;;;;;;;;;;;;;;;;;;5014270;28;19913;-67
2023/08/03 01:14:02;;;;;;;;;;;;;;;;;;5013616;28;19957;-67
2023/08/03 01:16:28;;;;;;;;;;;;;;;;;;5014751;28;20695;-67
2023/08/03 01:18:54;;;;;;;;;;;;;;;;;;5013713;28;19975;-67
2023/08/03 01:21:20;;;;;;;;;;;;;;;;;;5013981;28;20415;-67
2023/08/03 01:23:46;;;;;;;;;;;;;;;;;;5013671;28;19917;-66
2023/08/03 01:26:12;;;;;;;;;;;;;;;;;;5015022;28;20055;-67
2023/08/03 01:28:38;;;;;;;;;;;;;;;;;;5018086;28;19928;-67
2023/08/03 01:31:04;;;;;;;;;;;;;;;;;;5012832;28;19956;-67
2023/08/03 01:33:30;;;;;;;;;;;;;;;;;;5014840;28;19968;-67
2023/08/03 01:35:55;;;;;;;;;;;;;;;;;;5013678;28;20019;-67
2023/08/03 01:38:21;;;;;;;;;;;;;;;;;;5013897;28;19914;-68
2023/08/03 01:40:47;;;;;;;;;;;;;;;;;;5013749;28;19913;-67
2023/08/03 01:43:13;;;;;;;;;;;;;;;;;;5014894;28;19953;-68
2023/08/03 01:45:39;;;;;;;;;;;;;;;;;;5014558;28;20014;-66
2023/08/03 01:48:05;;;;;;;;;;;;;;;;;;4996165;28;20309;-67
2023/08/03 01:50:31;;;;;;;;;;;;;;;;;;5013603;28;19952;-67
2023/08/03 01:52:57;;;;;;;;;;;;;;;;;;5012705;28;20004;-68
2023/08/03 01:55:23;;;;;;;;;;;;;;;;;;5013658;28;19913;-67
2023/08/03 01:57:49;;;;;;;;;;;;;;;;;;5013254;28;19921;-67
2023/08/03 02:00:15;;;;;;;;;;;;;;;;;;5014082;28;20297;-65
2023/08/03 02:02:40;;;;;;;;;;;;;;;;;;5014394;28;19948;-66
2023/08/03 02:05:06;;;;;;;;;;;;;;;;;;5002976;28;19965;-68
2023/08/03 02:07:32;;;;;;;;;;;;;;;;;;4992050;28;19909;-67
2023/08/03 02:09:59;;;;;;;;;;;;;;;;;;4990318;28;19957;-67
2023/08/03 02:12:25;;;;;;;;;;;;;;;;;;4990734;28;20378;-68
2023/08/03 02:14:51;;;;;;;;;;;;;;;;;;4990151;28;20005;-66
2023/08/03 02:17:17;;;;;;;;;;;;;;;;;;4991488;28;19918;-67
2023/08/03 02:19:42;;;;;;;;;;;;;;;;;;4992904;28;20400;-67
2023/08/03 02:22:08;;;;;;;;;;;;;;;;;;4992316;28;19964;-68
2023/08/03 02:24:34;;;;;;;;;;;;;;;;;;4989124;28;20339;-68
2023/08/03 02:27:00;;;;;;;;;;;;;;;;;;4990119;28;19963;-67
2023/08/03 02:29:26;;;;;;;;;;;;;;;;;;4990216;28;19949;-66
2023/08/03 02:31:52;;;;;;;;;;;;;;;;;;4990900;28;19917;-68
2023/08/03 02:34:18;;;;;;;;;;;;;;;;;;4990007;28;19916;-67
2023/08/03 02:36:44;;;;;;;;;;;;;;;;;;4989954;28;20004;-67
2023/08/03 02:39:10;;;;;;;;;;;;;;;;;;4991383;28;20372;-68
2023/08/03 02:41:38;;;;;;;;;;;;;;;;;;4987339;28;20016;-68
2023/08/03 02:44:04;;;;;;;;;;;;;;;;;;4989015;28;19924;-67
2023/08/03 02:46:32;;;;;;;;;;;;;;;;;;4987014;28;19917;-68
2023/08/03 02:48:58;;;;;;;;;;;;;;;;;;4990636;28;19924;-68
2023/08/03 02:51:25;;;;;;;;;;;;;;;;;;4989662;28;20371;-67
2023/08/03 02:53:51;;;;;;;;;;;;;;;;;;4989718;28;20009;-67
2023/08/03 02:56:17;;;;;;;;;;;;;;;;;;4988953;28;20049;-66
2023/08/03 02:58:43;;;;;;;;;;;;;;;;;;4987447;28;19960;-66
2023/08/03 03:01:08;;;;;;;;;;;;;;;;;;4990246;28;20537;-67
2023/08/03 03:03:34;;;;;;;;;;;;;;;;;;4990829;28;19922;-67
2023/08/03 03:06:00;;;;;;;;;;;;;;;;;;4989525;28;19976;-67
2023/08/03 03:08:26;;;;;;;;;;;;;;;;;;4990769;28;20007;-67
2023/08/03 03:10:52;;;;;;;;;;;;;;;;;;4990321;28;19909;-67
2023/08/03 03:13:18;;;;;;;;;;;;;;;;;;4989400;28;20021;-67
2023/08/03 03:15:44;;;;;;;;;;;;;;;;;;4989286;28;20787;-67
2023/08/03 03:18:10;;;;;;;;;;;;;;;;;;4994213;28;19967;-67
2023/08/03 03:20:36;;;;;;;;;;;;;;;;;;5012600;28;20000;-67
2023/08/03 03:23:02;;;;;;;;;;;;;;;;;;5013059;28;19913;-67
2023/08/03 03:25:28;;;;;;;;;;;;;;;;;;5011386;28;20377;-65
2023/08/03 03:27:53;;;;;;;;;;;;;;;;;;5012718;28;19917;-65
2023/08/03 03:30:19;;;;;;;;;;;;;;;;;;5011336;28;20288;-65
2023/08/03 03:32:45;;;;;;;;;;;;;;;;;;5010919;28;19952;-65
2023/08/03 03:35:11;;;;;;;;;;;;;;;;;;5011848;28;20060;-65
2023/08/03 03:37:37;;;;;;;;;;;;;;;;;;5011492;28;19963;-65
2023/08/03 03:40:03;;;;;;;;;;;;;;;;;;5011658;28;19953;-65
2023/08/03 03:42:29;;;;;;;;;;;;;;;;;;5011031;28;19920;-65
2023/08/03 03:44:55;;;;;;;;;;;;;;;;;;5011557;28;19917;-65
2023/08/03 03:47:21;;;;;;;;;;;;;;;;;;5010998;28;19960;-65
2023/08/03 03:49:47;;;;;;;;;;;;;;;;;;4992656;28;19960;-65
2023/08/03 03:52:13;;;;;;;;;;;;;;;;;;5011988;28;20424;-65
2023/08/03 03:54:38;;;;;;;;;;;;;;;;;;5009552;28;20372;-65
2023/08/03 03:57:04;;;;;;;;;;;;;;;;;;5011151;28;19913;-65
2023/08/03 03:59:30;;;;;;;;;;;;;;;;;;5011712;28;19914;-65
2023/08/03 04:01:56;;;;;;;;;;;;;;;;;;4993405;28;19967;-65
2023/08/03 04:04:22;;;;;;;;;;;;;;;;;;5001517;28;20355;-65
2023/08/03 04:06:48;;;;;;;;;;;;;;;;;;5011438;28;19968;-65
2023/08/03 04:09:14;;;;;;;;;;;;;;;;;;5010349;28;19920;-65
2023/08/03 04:11:40;;;;;;;;;;;;;;;;;;5014127;28;19937;-65
2023/08/03 04:14:06;;;;;;;;;;;;;;;;;;5012643;28;19920;-65
2023/08/03 04:16:31;;;;;;;;;;;;;;;;;;5015312;28;20369;-65
2023/08/03 04:18:57;;;;;;;;;;;;;;;;;;5013742;28;19960;-65
2023/08/03 04:21:23;;;;;;;;;;;;;;;;;;5013223;28;20387;-65
2023/08/03 04:23:49;;;;;;;;;;;;;;;;;;5014403;28;19914;-65
2023/08/03 04:26:15;;;;;;;;;;;;;;;;;;5014796;28;19921;-65
2023/08/03 04:28:42;;;;;;;;;;;;;;;;;;5014199;28;20256;-65
2023/08/03 04:31:08;;;;;;;;;;;;;;;;;;5014507;28;20476;-65
2023/08/03 04:33:34;;;;;;;;;;;;;;;;;;5015051;28;19917;-65
2023/08/03 04:36:00;;;;;;;;;;;;;;;;;;5012020;28;20008;-65
2023/08/03 04:38:26;;;;;;;;;;;;;;;;;;5014069;28;19920;-65
2023/08/03 04:40:52;;;;;;;;;;;;;;;;;;5014341;28;19962;-65
2023/08/03 04:43:17;;;;;;;;;;;;;;;;;;5014178;28;20395;-65
2023/08/03 04:45:43;;;;;;;;;;;;;;;;;;5014252;28;19937;-65
2023/08/03 04:48:09;;;;;;;;;;;;;;;;;;5015005;28;20282;-65
2023/08/03 04:50:35;;;;;;;;;;;;;;;;;;5012789;28;19944;-66
2023/08/03 04:53:01;;;;;;;;;;;;;;;;;;5011893;28;20015;-65
2023/08/03 04:55:27;;;;;;;;;;;;;;;;;;5011708;28;20136;-66
2023/08/03 04:57:53;;;;;;;;;;;;;;;;;;5012800;28;19963;-66
2023/08/03 05:00:19;;;;;;;;;;;;;;;;;;5012853;28;19979;-66
2023/08/03 05:02:45;;;;;;;;;;;;;;;;;;5014571;28;19914;-66
2023/08/03 05:05:11;;;;;;;;;;;;;;;;;;4996803;28;19921;-65
2023/08/03 05:07:37;;;;;;;;;;;;;;;;;;5011174;28;19954;-66
2023/08/03 05:10:04;;;;;;;;;;;;;;;;;;5011720;28;21966;-65
2023/08/03 05:12:30;;;;;;;;;;;;;;;;;;5014266;28;19953;-65
2023/08/03 05:14:56;;;;;;;;;;;;;;;;;;5013798;28;20307;-65
2023/08/03 05:17:22;;;;;;;;;;;;;;;;;;5013445;28;19943;-65
2023/08/03 05:19:49;;;;;;;;;;;;;;;;;;5012621;28;19921;-65
2023/08/03 05:22:15;;;;;;;;;;;;;;;;;;5013042;28;19963;-65
2023/08/03 05:24:41;;;;;;;;;;;;;;;;;;5012349;28;19925;-65
2023/08/03 05:27:06;;;;;;;;;;;;;;;;;;5012549;28;19960;-66
2023/08/03 05:29:32;;;;;;;;;;;;;;;;;;5013045;28;20317;-65
2023/08/03 05:31:58;;;;;;;;;;;;;;;;;;5013500;28;19923;-65
2023/08/03 05:34:24;;;;;;;;;;;;;;;;;;5013702;28;20500;-65
2023/08/03 05:36:50;;;;;;;;;;;;;;;;;;5013924;28;20069;-65
2023/08/03 05:39:16;;;;;;;;;;;;;;;;;;5010697;28;20331;-65
2023/08/03 05:41:42;;;;;;;;;;;;;;;;;;5013608;28;19959;-65
2023/08/03 05:44:08;;;;;;;;;;;;;;;;;;5011488;28;19972;-67
2023/08/03 05:46:34;;;;;;;;;;;;;;;;;;5011859;28;19917;-69
2023/08/03 05:49:00;;;;;;;;;;;;;;;;;;5013500;28;20357;-67
2023/08/03 05:51:25;;;;;;;;;;;;;;;;;;5012825;28;19924;-67
2023/08/03 05:53:51;;;;;;;;;;;;;;;;;;5015952;28;19956;-67
2023/08/03 05:56:17;;;;;;;;;;;;;;;;;;5011696;28;20044;-70
2023/08/03 05:58:43;;;;;;;;;;;;;;;;;;5013157;28;20348;-70
2023/08/03 06:01:09;;;;;;;;;;;;;;;;;;5011003;28;19913;-64
2023/08/03 06:03:35;;;;;;;;;;;;;;;;;;5013155;28;19928;-68
2023/08/03 06:06:01;;;;;;;;;;;;;;;;;;5013345;28;20080;-67
2023/08/03 06:08:27;;;;;;;;;;;;;;;;;;5012129;28;19913;-67
2023/08/03 06:10:53;;;;;;;;;;;;;;;;;;5011654;28;19966;-67
2023/08/03 06:13:19;;;;;;;;;;;;;;;;;;5011734;28;20403;-68
2023/08/03 06:15:45;;;;;;;;;;;;;;;;;;5011406;28;20447;-67
2023/08/03 06:18:11;;;;;;;;;;;;;;;;;;5012051;28;19921;-67
2023/08/03 06:20:37;;;;;;;;;;;;;;;;;;5012429;28;19921;-68
2023/08/03 06:23:03;;;;;;;;;;;;;;;;;;5012935;28;20018;-68
2023/08/03 06:25:28;;;;;;;;;;;;;;;;;;5011746;28;20317;-66
2023/08/03 06:27:57;;;;;;;;;;;;;;;;;;5011378;28;19917;-66
2023/08/03 06:30:23;;;;;;;;;;;;;;;;;;5012196;28;19921;-68
2023/08/03 06:32:49;;;;;;;;;;;;;;;;;;5011363;28;19950;-66
2023/08/03 06:35:15;;;;;;;;;;;;;;;;;;5007428;28;20027;-66
2023/08/03 06:37:40;;;;;;;;;;;;;;;;;;5009598;28;19973;-68
2023/08/03 06:40:06;;;;;;;;;;;;;;;;;;5008399;28;19913;-67
2023/08/03 06:42:32;;;;;;;;;;;;;;;;;;5011870;28;20360;-68
2023/08/03 06:44:58;;;;;;;;;;;;;;;;;;5009151;28;20084;-68
2023/08/03 06:47:24;;;;;;;;;;;;;;;;;;4995686;28;20016;-68
2023/08/03 06:49:50;;;;;;;;;;;;;;;;;;5011819;28;20369;-67
2023/08/03 06:52:16;;;;;;;;;;;;;;;;;;5011249;28;20061;-67
2023/08/03 06:54:42;;;;;;;;;;;;;;;;;;5010176;28;19914;-67
2023/08/03 06:57:08;;;;;;;;;;;;;;;;;;5011433;28;19914;-68
2023/08/03 06:59:33;;;;;;;;;;;;;;;;;;5012077;28;19968;-68
2023/08/03 07:01:59;;;;;;;;;;;;;;;;;;5008943;28;19949;-68
2023/08/03 07:04:25;;;;;;;;;;;;;;;;;;5012285;28;19987;-65
2023/08/03 07:06:51;;;;;;;;;;;;;;;;;;5011632;28;19913;-68
2023/08/03 07:09:17;;;;;;;;;;;;;;;;;;5011713;28;19914;-64
2023/08/03 07:11:43;;;;;;;;;;;;;;;;;;5010588;28;20038;-68
2023/08/03 07:14:09;;;;;;;;;;;;;;;;;;5010450;28;20008;-67
2023/08/03 07:16:36;;;;;;;;;;;;;;;;;;5009892;28;19914;-68
2023/08/03 07:19:02;;;;;;;;;;;;;;;;;;5006616;28;19923;-68
2023/08/03 07:21:28;;;;;;;;;;;;;;;;;;5011033;28;19996;-67
2023/08/03 07:23:54;;;;;;;;;;;;;;;;;;5008954;28;19975;-68
2023/08/03 07:26:20;;;;;;;;;;;;;;;;;;5011065;28;20272;-67
2023/08/03 07:28:46;;;;;;;;;;;;;;;;;;5008721;28;19928;-69
2023/08/03 07:31:12;;;;;;;;;;;;;;;;;;5010465;28;19918;-68
2023/08/03 07:33:38;;;;;;;;;;;;;;;;;;5005493;28;19913;-68
2023/08/03 07:36:04;;;;;;;;;;;;;;;;;;5011142;28;19968;-68
2023/08/03 07:38:30;;;;;;;;;;;;;;;;;;5009723;28;19936;-69
2023/08/03 07:40:56;;;;;;;;;;;;;;;;;;5010951;28;19992;-67
2023/08/03 07:43:22;;;;;;;;;;;;;;;;;;5010785;28;20444;-68
2023/08/03 07:45:48;;;;;;;;;;;;;;;;;;5009704;28;19952;-68
2023/08/03 07:48:14;;;;;;;;;;;;;;;;;;5009791;28;19914;-67
2023/08/03 07:50:39;;;;;;;;;;;;;;;;;;5007955;28;20449;-68
2023/08/03 07:53:05;;;;;;;;;;;;;;;;;;5007784;28;19965;-68
2023/08/03 07:55:31;;;;;;;;;;;;;;;;;;5010259;28;19996;-68
2023/08/03 07:57:57;;;;;;;;;;;;;;;;;;5009482;28;19997;-68
2023/08/03 08:00:23;;;;;;;;;;;;;;;;;;5008937;28;20407;-67
2023/08/03 08:02:49;;;;;;;;;;;;;;;;;;5011541;28;19913;-67
2023/08/03 08:05:15;;;;;;;;;;;;;;;;;;5006253;28;20581;-65
2023/08/03 08:07:41;;;;;;;;;;;;;;;;;;5011579;28;19917;-65
2023/08/03 08:10:07;;;;;;;;;;;;;;;;;;5011454;28;19920;-64
2023/08/03 08:12:33;;;;;;;;;;;;;;;;;;5011417;28;20010;-65
2023/08/03 08:14:59;;;;;;;;;;;;;;;;;;5011538;28;19925;-65
2023/08/03 08:17:25;;;;;;;;;;;;;;;;;;5009502;28;20393;-65
2023/08/03 08:19:50;;;;;;;;;;;;;;;;;;5010651;28;19917;-65
2023/08/03 08:22:17;;;;;;;;;;;;;;;;;;5009582;28;19917;-65
2023/08/03 08:24:43;;;;;;;;;;;;;;;;;;5011601;28;19928;-64
2023/08/03 08:27:08;;;;;;;;;;;;;;;;;;5010673;28;19918;-64
2023/08/03 08:29:34;;;;;;;;;;;;;;;;;;5007886;28;19959;-65
2023/08/03 08:32:00;;;;;;;;;;;;;;;;;;5010223;28;19914;-64
2023/08/03 08:34:26;;;;;;;;;;;;;;;;;;5011062;28;20393;-65
2023/08/03 08:36:55;;;;;;;;;;;;;;;;;;5011254;28;20456;-65
2023/08/03 08:39:21;;;;;;;;;;;;;;;;;;5011282;28;19909;-63
2023/08/03 08:41:47;;;;;;;;;;;;;;;;;;5010756;28;19919;-65
2023/08/03 08:44:13;;;;;;;;;;;;;;;;;;4992407;28;20288;-65
2023/08/03 08:46:39;;;;;;;;;;;;;;;;;;5010669;28;19913;-65
2023/08/03 08:49:05;;;;;;;;;;;;;;;;;;5009963;28;19921;-63
2023/08/03 08:51:31;;;;;;;;;;;;;;;;;;5008249;28;19964;-63
2023/08/03 08:53:57;;;;;;;;;;;;;;;;;;5011145;28;20392;-64
2023/08/03 08:56:23;;;;;;;;;;;;;;;;;;5012256;28;19913;-65
2023/08/03 08:58:49;;;;;;;;;;;;;;;;;;5013770;28;20270;-65
2023/08/03 09:01:15;;;;;;;;;;;;;;;;;;5007335;28;20429;-66
2023/08/03 09:03:41;;;;;;;;;;;;;;;;;;5006277;28;19945;-65
2023/08/03 09:06:07;;;;;;;;;;;;;;;;;;5011249;28;19963;-65
2023/08/03 09:08:33;;;;;;;;;;;;;;;;;;5009796;28;19972;-66
2023/08/03 09:10:59;;;;;;;;;;;;;;;;;;5008905;28;20858;-65
2023/08/03 09:13:25;;;;;;;;;;;;;;;;;;5014364;28;20000;-65
2023/08/03 09:15:51;;;;;;;;;;;;;;;;;;5011585;28;20332;-69
2023/08/03 09:18:16;;;;;;;;;;;;;;;;;;5014292;28;19980;-71
2023/08/03 09:20:42;;;;;;;;;;;;;;;;;;5013858;28;20293;-71
2023/08/03 09:23:08;;;;;;;;;;;;;;;;;;5014274;28;20008;-69
2023/08/03 09:25:34;;;;;;;;;;;;;;;;;;5011736;28;19990;-69
2023/08/03 09:28:00;;;;;;;;;;;;;;;;;;5012499;28;20383;-69
2023/08/03 09:30:26;;;;;;;;;;;;;;;;;;5013739;28;20012;-69
2023/08/03 09:32:52;;;;;;;;;;;;;;;;;;5011319;28;21617;-68
2023/08/03 09:35:18;;;;;;;;;;;;;;;;;;5011963;28;20439;-69
2023/08/03 09:37:44;;;;;;;;;;;;;;;;;;5012732;28;19967;-69
2023/08/03 09:40:10;;;;;;;;;;;;;;;;;;5010129;28;19920;-68
2023/08/03 09:42:36;;;;;;;;;;;;;;;;;;5008495;28;19925;-69
2023/08/03 09:45:02;;;;;;;;;;;;;;;;;;5010945;28;20448;-71
2023/08/03 09:47:28;;;;;;;;;;;;;;;;;;5010856;28;19982;-68
2023/08/03 09:49:54;;;;;;;;;;;;;;;;;;5013084;28;20356;-71
2023/08/03 09:52:21;;;;;;;;;;;;;;;;;;5012322;28;19949;-68
2023/08/03 09:54:52;;;;;;;;;;;;;;;;;;5012267;28;20288;-71
2023/08/03 09:57:18;;;;;;;;;;;;;;;;;;4995479;28;19925;-67
2023/08/03 09:59:44;;;;;;;;;;;;;;;;;;5007538;28;19952;-69
2023/08/03 10:02:10;;;;;;;;;;;;;;;;;;5009665;28;20296;-69
2023/08/03 10:04:36;;;;;;;;;;;;;;;;;;5003011;28;20385;-70
2023/08/03 10:07:02;;;;;;;;;;;;;;;;;;5007834;28;19948;-68
2023/08/03 10:09:28;;;;;;;;;;;;;;;;;;5009739;28;20291;-69
2023/08/03 10:11:54;;;;;;;;;;;;;;;;;;4993273;28;19914;-68
2023/08/03 10:14:20;;;;;;;;;;;;;;;;;;5012858;28;20404;-69
2023/08/03 10:16:46;;;;;;;;;;;;;;;;;;5013183;28;19914;-72
2023/08/03 10:19:12;;;;;;;;;;;;;;;;;;5006005;28;19917;-68
2023/08/03 10:21:38;;;;;;;;;;;;;;;;;;5007724;28;19924;-69
2023/08/03 10:24:04;;;;;;;;;;;;;;;;;;5011286;28;19949;-69
2023/08/03 10:26:30;;;;;;;;;;;;;;;;;;5008229;28;19999;-62
2023/08/03 10:28:56;;;;;;;;;;;;;;;;;;5010432;28;20295;-62
2023/08/03 10:31:22;;;;;;;;;;;;;;;;;;5012984;28;19920;-62
2023/08/03 10:33:49;;;;;;;;;;;;;;;;;;5012791;28;19956;-62
2023/08/03 10:36:15;;;;;;;;;;;;;;;;;;5009192;28;19925;-62
2023/08/03 10:38:40;;;;;;;;;;;;;;;;;;5010451;28;19967;-62
2023/08/03 10:41:06;;;;;;;;;;;;;;;;;;5004942;28;19914;-62
2023/08/03 10:43:32;;;;;;;;;;;;;;;;;;5000135;28;19961;-65
2023/08/03 10:45:58;;;;;;;;;;;;;;;;;;5006091;28;20293;-63
2023/08/03 10:48:24;;;;;;;;;;;;;;;;;;5009740;28;19921;-62
2023/08/03 10:50:53;;;;;;;;;;;;;;;;;;5011000;28;19988;-63
2023/08/03 10:53:19;;;;;;;;;;;;;;;;;;5001712;28;19924;-62
2023/08/03 10:55:46;;;;;;;;;;;;;;;;;;5008421;28;19944;-61
2023/08/03 10:58:12;;;;;;;;;;;;;;;;;;5009405;28;19913;-62
2023/08/03 11:00:38;;;;;;;;;;;;;;;;;;5009389;28;19913;-62
2023/08/03 11:03:04;;;;;;;;;;;;;;;;;;5009758;28;19947;-63
2023/08/03 11:05:30;;;;;;;;;;;;;;;;;;5011242;28;20007;-64
2023/08/03 11:07:56;;;;;;;;;;;;;;;;;;5010009;28;20324;-60
2023/08/03 11:10:22;;;;;;;;;;;;;;;;;;5010946;28;20411;-62
2023/08/03 11:12:48;;;;;;;;;;;;;;;;;;5005901;28;19957;-61
2023/08/03 11:15:14;;;;;;;;;;;;;;;;;;4994137;28;19948;-61
2023/08/03 11:17:40;;;;;;;;;;;;;;;;;;5009795;28;20395;-64
2023/08/03 11:20:07;;;;;;;;;;;;;;;;;;5010653;28;19970;-62
2023/08/03 11:22:33;;;;;;;;;;;;;;;;;;5009740;28;19925;-62
2023/08/03 11:24:59;;;;;;;;;;;;;;;;;;5006512;28;19953;-63
2023/08/03 11:27:25;;;;;;;;;;;;;;;;;;5007202;28;19918;-62
2023/08/03 11:29:51;;;;;;;;;;;;;;;;;;5009177;28;19929;-61
2023/08/03 11:32:17;;;;;;;;;;;;;;;;;;5001980;28;19996;-63
2023/08/03 11:34:43;;;;;;;;;;;;;;;;;;5010008;28;20413;-61
2023/08/03 11:37:10;;;;;;;;;;;;;;;;;;5011458;28;19910;-63
2023/08/03 11:39:36;;;;;;;;;;;;;;;;;;4987837;28;19924;-63
2023/08/03 11:42:02;;;;;;;;;;;;;;;;;;5010533;28;19957;-62
2023/08/03 11:44:28;;;;;;;;;;;;;;;;;;5010047;28;20028;-64
2023/08/03 11:46:54;;;;;;;;;;;;;;;;;;5007557;28;20016;-61
2023/08/03 11:49:19;;;;;;;;;;;;;;;;;;4993386;28;20290;-61
2023/08/03 11:51:45;;;;;;;;;;;;;;;;;;5003678;28;19917;-61
2023/08/03 11:54:11;;;;;;;;;;;;;;;;;;5005856;28;19913;-66
2023/08/03 11:56:37;;;;;;;;;;;;;;;;;;5006247;28;20368;-61
2023/08/03 11:59:04;;;;;;;;;;;;;;;;;;5008827;28;19955;-63
2023/08/03 12:01:30;;;;;;;;;;;;;;;;;;5008714;28;19914;-62
2023/08/03 12:03:56;;;;;;;;;;;;;;;;;;5008358;28;19929;-61
2023/08/03 12:06:22;;;;;;;;;;;;;;;;;;5009750;28;19917;-61
2023/08/03 12:08:49;;;;;;;;;;;;;;;;;;4987026;28;20377;-61
2023/08/03 12:11:15;;;;;;;;;;;;;;;;;;5011013;28;19921;-62
2023/08/03 12:13:40;;;;;;;;;;;;;;;;;;5007724;28;19956;-61
2023/08/03 12:16:06;;;;;;;;;;;;;;;;;;5005595;28;20338;-63
2023/08/03 12:18:32;;;;;;;;;;;;;;;;;;5007778;28;19917;-62
2023/08/03 12:20:58;;;;;;;;;;;;;;;;;;5010964;28;20292;-64
2023/08/03 12:23:24;;;;;;;;;;;;;;;;;;5011340;28;20306;-63
2023/08/03 12:25:52;;;;;;;;;;;;;;;;;;5010457;28;20056;-62
2023/08/03 12:28:18;;;;;;;;;;;;;;;;;;5011436;28;19913;-62
2023/08/03 12:30:43;;;;;;;;;;;;;;;;;;5002807;28;19948;-66
2023/08/03 12:33:09;;;;;;;;;;;;;;;;;;5010549;28;19914;-62
2023/08/03 12:35:35;;;;;;;;;;;;;;;;;;5014532;28;19919;-65
2023/08/03 12:38:01;;;;;;;;;;;;;;;;;;5014947;28;20354;-64
2023/08/03 12:40:27;;;;;;;;;;;;;;;;;;5008330;28;19914;-65
2023/08/03 12:42:53;;;;;;;;;;;;;;;;;;5005153;28;19921;-62
2023/08/03 12:45:19;;;;;;;;;;;;;;;;;;5010033;28;19964;-62
2023/08/03 12:47:45;;;;;;;;;;;;;;;;;;5012556;28;19945;-64
2023/08/03 12:50:11;;;;;;;;;;;;;;;;;;5007431;28;19917;-62
2023/08/03 12:52:37;;;;;;;;;;;;;;;;;;5011083;28;20379;-62
2023/08/03 12:55:03;;;;;;;;;;;;;;;;;;4996764;28;19976;-63
2023/08/03 12:57:29;;;;;;;;;;;;;;;;;;5013283;28;20108;-62
2023/08/03 12:59:55;;;;;;;;;;;;;;;;;;5013476;28;19957;-62
2023/08/03 13:02:20;;;;;;;;;;;;;;;;;;5013472;28;19957;-64
2023/08/03 13:04:50;;;;;;;;;;;;;;;;;;5014235;28;19965;-63
2023/08/03 13:07:16;;;;;;;;;;;;;;;;;;5014437;28;20373;-62
2023/08/03 13:09:42;;;;;;;;;;;;;;;;;;5012569;28;19932;-62
2023/08/03 13:12:09;;;;;;;;;;;;;;;;;;5013891;28;19923;-61
2023/08/03 13:14:35;;;;;;;;;;;;;;;;;;5011277;28;19914;-64
2023/08/03 13:17:01;;;;;;;;;;;;;;;;;;5014118;28;19918;-63
2023/08/03 13:19:27;;;;;;;;;;;;;;;;;;5014076;28;19921;-62
2023/08/03 13:21:53;;;;;;;;;;;;;;;;;;5013262;28;19961;-61
2023/08/03 13:24:20;;;;;;;;;;;;;;;;;;5014049;28;19953;-62
2023/08/03 13:26:46;;;;;;;;;;;;;;;;;;5010676;28;19917;-62
2023/08/03 13:29:14;;;;;;;;;;;;;;;;;;5014170;28;20377;-62
2023/08/03 13:31:40;;;;;;;;;;;;;;;;;;5013452;28;19967;-61
2023/08/03 13:34:06;;;;;;;;;;;;;;;;;;5006820;28;19968;-61
2023/08/03 13:36:32;;;;;;;;;;;;;;;;;;4993727;28;20752;-61
2023/08/03 13:38:58;;;;;;;;;;;;;;;;;;5008872;28;19967;-62
2023/08/03 13:41:24;;;;;;;;;;;;;;;;;;5003941;28;19913;-62
2023/08/03 13:43:50;;;;;;;;;;;;;;;;;;5003867;28;19952;-60
2023/08/03 13:46:16;;;;;;;;;;;;;;;;;;5004999;28;20075;-61
2023/08/03 13:48:42;;;;;;;;;;;;;;;;;;5007840;28;20332;-62
2023/08/03 13:51:08;;;;;;;;;;;;;;;;;;5006223;28;19914;-62
2023/08/03 13:53:34;;;;;;;;;;;;;;;;;;5009169;28;19972;-62
2023/08/03 13:55:59;;;;;;;;;;;;;;;;;;5010270;28;20069;-71
2023/08/03 13:58:25;;;;;;;;;;;;;;;;;;4993670;28;20004;-69
2023/08/03 14:00:51;;;;;;;;;;;;;;;;;;5007879;28;19991;-71
2023/08/03 14:03:17;;;;;;;;;;;;;;;;;;5010479;28;19976;-68
2023/08/03 14:05:43;;;;;;;;;;;;;;;;;;5012861;28;20067;-67
2023/08/03 14:08:09;;;;;;;;;;;;;;;;;;5005761;28;19933;-70
2023/08/03 14:10:35;;;;;;;;;;;;;;;;;;4997173;28;19945;-65
2023/08/03 14:13:01;;;;;;;;;;;;;;;;;;5007334;28;19922;-70
2023/08/03 14:15:27;;;;;;;;;;;;;;;;;;5007869;28;20284;-70
2023/08/03 14:17:53;;;;;;;;;;;;;;;;;;4989564;28;19960;-69
2023/08/03 14:20:19;;;;;;;;;;;;;;;;;;5008066;28;19921;-68
2023/08/03 14:22:45;;;;;;;;;;;;;;;;;;4991598;28;19967;-70
2023/08/03 14:25:17;;;;;;;;;;;;;;;;;;5011421;28;19925;-66
2023/08/03 14:27:43;;;;;;;;;;;;;;;;;;5011516;28;19924;-66
2023/08/03 14:30:09;;;;;;;;;;;;;;;;;;5004523;28;19917;-69
2023/08/03 14:32:35;;;;;;;;;;;;;;;;;;5009397;28;20011;-69
2023/08/03 14:35:01;;;;;;;;;;;;;;;;;;5007001;28;20007;-70
2023/08/03 14:37:27;;;;;;;;;;;;;;;;;;5011852;28;19936;-69
2023/08/03 14:39:53;;;;;;;;;;;;;;;;;;5010221;28;19914;-68
2023/08/03 14:42:19;;;;;;;;;;;;;;;;;;5009954;28;20385;-68
2023/08/03 14:44:44;;;;;;;;;;;;;;;;;;5009247;28;19996;-67
2023/08/03 14:47:10;;;;;;;;;;;;;;;;;;5008474;28;20262;-68
2023/08/03 14:49:36;;;;;;;;;;;;;;;;;;5000216;28;19968;-68
2023/08/03 14:52:02;;;;;;;;;;;;;;;;;;4999954;28;19921;-65
2023/08/03 14:54:28;;;;;;;;;;;;;;;;;;4999560;28;19981;-69
2023/08/03 14:56:54;;;;;;;;;;;;;;;;;;5006920;28;19923;-67
2023/08/03 14:59:22;;;;;;;;;;;;;;;;;;5008250;28;19999;-66
2023/08/03 15:01:48;;;;;;;;;;;;;;;;;;5004784;28;19913;-64
2023/08/03 15:04:14;;;;;;;;;;;;;;;;;;5008242;28;20013;-67
2023/08/03 15:06:40;;;;;;;;;;;;;;;;;;5006857;28;20025;-67
2023/08/03 15:09:06;;;;;;;;;;;;;;;;;;5003540;28;19925;-68
2023/08/03 15:11:33;;;;;;;;;;;;;;;;;;4986836;28;20048;-69
2023/08/03 15:14:00;;;;;;;;;;;;;;;;;;5005403;28;19921;-63
2023/08/03 15:16:26;;;;;;;;;;;;;;;;;;5008282;28;20603;-68
2023/08/03 15:18:52;;;;;;;;;;;;;;;;;;4988651;28;19984;-68
2023/08/03 15:21:18;;;;;;;;;;;;;;;;;;5008450;28;19956;-67
2023/08/03 15:23:44;;;;;;;;;;;;;;;;;;5009121;28;19987;-67
2023/08/03 15:26:10;;;;;;;;;;;;;;;;;;5010013;28;19921;-67
2023/08/03 15:28:36;;;;;;;;;;;;;;;;;;4984672;28;19976;-68
2023/08/03 15:31:02;;;;;;;;;;;;;;;;;;5000944;28;19945;-67
2023/08/03 15:33:28;;;;;;;;;;;;;;;;;;5006985;28;19952;-67
2023/08/03 15:35:54;;;;;;;;;;;;;;;;;;5022905;28;19956;-68
2023/08/03 15:38:20;;;;;;;;;;;;;;;;;;5009985;28;19924;-67
2023/08/03 15:40:46;;;;;;;;;;;;;;;;;;5007264;28;19968;-66
2023/08/03 15:43:11;;;;;;;;;;;;;;;;;;5009284;28;20425;-68
2023/08/03 15:45:38;;;;;;;;;;;;;;;;;;4991730;28;20333;-68
2023/08/03 15:48:04;;;;;;;;;;;;;;;;;;5009214;28;19924;-68
2023/08/03 15:50:30;;;;;;;;;;;;;;;;;;5005299;28;20314;-66
2023/08/03 15:52:56;;;;;;;;;;;;;;;;;;5008201;28;19960;-68
2023/08/03 15:55:22;;;;;;;;;;;;;;;;;;5011173;28;19957;-69
2023/08/03 15:57:47;;;;;;;;;;;;;;;;;;4993290;28;20333;-68
2023/08/03 16:00:13;;;;;;;;;;;;;;;;;;5011089;28;19910;-67
2023/08/03 16:02:39;;;;;;;;;;;;;;;;;;5010570;28;19914;-67
2023/08/03 16:05:05;;;;;;;;;;;;;;;;;;5011081;28;19924;-68
2023/08/03 16:07:31;;;;;;;;;;;;;;;;;;5003953;28;19961;-69
2023/08/03 16:09:57;;;;;;;;;;;;;;;;;;5006897;28;20344;-68
2023/08/03 16:12:23;;;;;;;;;;;;;;;;;;5013471;28;19917;-70
2023/08/03 16:14:49;;;;;;;;;;;;;;;;;;5013865;28;19949;-64
2023/08/03 16:17:20;;;;;;;;;;;;;;;;;;5010385;28;19924;-62
2023/08/03 16:19:46;;;;;;;;;;;;;;;;;;5014366;28;20440;-62
2023/08/03 16:22:12;;;;;;;;;;;;;;;;;;4994651;28;20020;-63
2023/08/03 16:24:37;;;;;;;;;;;;;;;;;;4996308;28;19967;-62
2023/08/03 16:27:04;;;;;;;;;;;;;;;;;;5004520;28;19966;-63
2023/08/03 16:29:30;;;;;;;;;;;;;;;;;;5008956;28;19913;-63
2023/08/03 16:31:55;;;;;;;;;;;;;;;;;;5011135;28;21348;-66
2023/08/03 16:34:21;;;;;;;;;;;;;;;;;;5009539;28;19999;-62
2023/08/03 16:36:47;;;;;;;;;;;;;;;;;;5013144;28;20001;-62